sensor_id;sensor_type;location;lat;lon;timestamp;P1;durP1;ratioP1;P2;durP2;ratioP2
78925;SDS011;68321;51.276;7.208;2024-02-26T00:02:21;3.67;;;1.90;;
78925;SDS011;68321;51.276;7.208;2024-02-26T00:04:46;3.70;;;1.52;;
78925;SDS011;68321;51.276;7.208;2024-02-26T00:07:13;3.60;;;1.45;;
78925;SDS011;68321;51.276;7.208;2024-02-26T00:09:39;3.60;;;1.75;;
78925;SDS011;68321;51.276;7.208;2024-02-26T00:12:04;3.15;;;1.73;;
78925;SDS011;68321;51.276;7.208;2024-02-26T00:14:30;4.45;;;1.60;;
78925;SDS011;68321;51.276;7.208;2024-02-26T00:16:56;2.75;;;2.10;;
78925;SDS011;68321;51.276;7.208;2024-02-26T00:19:23;3.22;;;1.63;;
78925;SDS011;68321;51.276;7.208;2024-02-26T00:21:50;2.58;;;1.45;;
78925;SDS011;68321;51.276;7.208;2024-02-26T00:24:15;2.35;;;1.55;;
78925;SDS011;68321;51.276;7.208;2024-02-26T00:26:42;2.28;;;1.40;;
78925;SDS011;68321;51.276;7.208;2024-02-26T00:29:07;2.42;;;1.10;;
78925;SDS011;68321;51.276;7.208;2024-02-26T00:31:36;2.17;;;1.20;;
78925;SDS011;68321;51.276;7.208;2024-02-26T00:34:03;3.13;;;2.00;;
78925;SDS011;68321;51.276;7.208;2024-02-26T00:36:29;2.25;;;1.20;;
78925;SDS011;68321;51.276;7.208;2024-02-26T00:38:55;2.92;;;1.50;;
78925;SDS011;68321;51.276;7.208;2024-02-26T00:41:20;2.05;;;1.20;;
78925;SDS011;68321;51.276;7.208;2024-02-26T00:43:46;2.15;;;1.30;;
78925;SDS011;68321;51.276;7.208;2024-02-26T00:46:11;3.35;;;1.90;;
78925;SDS011;68321;51.276;7.208;2024-02-26T00:48:37;3.00;;;1.63;;
78925;SDS011;68321;51.276;7.208;2024-02-26T00:51:03;3.42;;;1.67;;
78925;SDS011;68321;51.276;7.208;2024-02-26T00:53:30;3.95;;;1.80;;
78925;SDS011;68321;51.276;7.208;2024-02-26T00:55:57;3.33;;;1.98;;
78925;SDS011;68321;51.276;7.208;2024-02-26T00:58:24;3.92;;;1.80;;
78925;SDS011;68321;51.276;7.208;2024-02-26T01:00:50;3.70;;;1.48;;
78925;SDS011;68321;51.276;7.208;2024-02-26T01:03:18;3.78;;;1.60;;
78925;SDS011;68321;51.276;7.208;2024-02-26T01:05:46;3.20;;;1.83;;
78925;SDS011;68321;51.276;7.208;2024-02-26T01:08:16;3.35;;;1.58;;
78925;SDS011;68321;51.276;7.208;2024-02-26T01:10:42;2.70;;;1.42;;
78925;SDS011;68321;51.276;7.208;2024-02-26T01:13:07;4.03;;;1.80;;
78925;SDS011;68321;51.276;7.208;2024-02-26T01:15:32;2.20;;;1.52;;
78925;SDS011;68321;51.276;7.208;2024-02-26T01:17:59;3.33;;;1.33;;
78925;SDS011;68321;51.276;7.208;2024-02-26T01:20:24;2.97;;;1.42;;
78925;SDS011;68321;51.276;7.208;2024-02-26T01:22:50;2.60;;;1.65;;
78925;SDS011;68321;51.276;7.208;2024-02-26T01:25:15;2.80;;;1.80;;
78925;SDS011;68321;51.276;7.208;2024-02-26T01:27:41;3.50;;;1.55;;
78925;SDS011;68321;51.276;7.208;2024-02-26T01:30:07;3.55;;;1.75;;
78925;SDS011;68321;51.276;7.208;2024-02-26T01:32:33;3.90;;;1.92;;
78925;SDS011;68321;51.276;7.208;2024-02-26T01:34:59;3.63;;;1.70;;
78925;SDS011;68321;51.276;7.208;2024-02-26T01:37:24;2.25;;;1.63;;
78925;SDS011;68321;51.276;7.208;2024-02-26T01:39:50;2.80;;;1.52;;
78925;SDS011;68321;51.276;7.208;2024-02-26T01:42:15;2.72;;;1.90;;
78925;SDS011;68321;51.276;7.208;2024-02-26T01:44:42;2.25;;;1.50;;
78925;SDS011;68321;51.276;7.208;2024-02-26T01:47:07;2.40;;;1.58;;
78925;SDS011;68321;51.276;7.208;2024-02-26T01:49:35;2.63;;;1.63;;
78925;SDS011;68321;51.276;7.208;2024-02-26T01:52:02;2.55;;;1.30;;
78925;SDS011;68321;51.276;7.208;2024-02-26T01:54:30;3.05;;;1.60;;
78925;SDS011;68321;51.276;7.208;2024-02-26T01:56:56;2.85;;;1.58;;
78925;SDS011;68321;51.276;7.208;2024-02-26T01:59:22;2.20;;;1.35;;
78925;SDS011;68321;51.276;7.208;2024-02-26T02:01:49;2.20;;;1.40;;
78925;SDS011;68321;51.276;7.208;2024-02-26T02:04:18;3.25;;;1.73;;
78925;SDS011;68321;51.276;7.208;2024-02-26T02:06:45;2.53;;;1.55;;
78925;SDS011;68321;51.276;7.208;2024-02-26T02:09:11;2.97;;;1.60;;
78925;SDS011;68321;51.276;7.208;2024-02-26T02:11:37;2.78;;;1.48;;
78925;SDS011;68321;51.276;7.208;2024-02-26T02:14:03;2.42;;;1.65;;
78925;SDS011;68321;51.276;7.208;2024-02-26T02:16:28;2.38;;;1.80;;
78925;SDS011;68321;51.276;7.208;2024-02-26T02:18:54;4.40;;;1.95;;
78925;SDS011;68321;51.276;7.208;2024-02-26T02:21:19;2.10;;;1.50;;
78925;SDS011;68321;51.276;7.208;2024-02-26T02:23:45;2.70;;;1.98;;
78925;SDS011;68321;51.276;7.208;2024-02-26T02:26:12;5.95;;;1.60;;
78925;SDS011;68321;51.276;7.208;2024-02-26T02:28:38;3.00;;;1.63;;
78925;SDS011;68321;51.276;7.208;2024-02-26T02:31:04;2.72;;;1.52;;
78925;SDS011;68321;51.276;7.208;2024-02-26T02:33:30;2.80;;;1.42;;
78925;SDS011;68321;51.276;7.208;2024-02-26T02:35:55;4.85;;;2.13;;
78925;SDS011;68321;51.276;7.208;2024-02-26T02:38:22;3.33;;;1.77;;
78925;SDS011;68321;51.276;7.208;2024-02-26T02:40:51;2.28;;;1.50;;
78925;SDS011;68321;51.276;7.208;2024-02-26T02:43:16;3.20;;;1.67;;
78925;SDS011;68321;51.276;7.208;2024-02-26T02:45:42;2.67;;;1.60;;
78925;SDS011;68321;51.276;7.208;2024-02-26T02:48:07;3.72;;;1.90;;
78925;SDS011;68321;51.276;7.208;2024-02-26T02:50:33;4.35;;;1.70;;
78925;SDS011;68321;51.276;7.208;2024-02-26T02:53:00;2.70;;;1.60;;
78925;SDS011;68321;51.276;7.208;2024-02-26T02:55:26;3.15;;;1.75;;
78925;SDS011;68321;51.276;7.208;2024-02-26T02:57:52;4.05;;;1.70;;
78925;SDS011;68321;51.276;7.208;2024-02-26T03:00:18;3.55;;;1.52;;
78925;SDS011;68321;51.276;7.208;2024-02-26T03:02:44;3.38;;;1.63;;
78925;SDS011;68321;51.276;7.208;2024-02-26T03:05:10;3.22;;;1.23;;
78925;SDS011;68321;51.276;7.208;2024-02-26T03:07:36;3.30;;;1.48;;
78925;SDS011;68321;51.276;7.208;2024-02-26T03:10:02;2.88;;;1.83;;
78925;SDS011;68321;51.276;7.208;2024-02-26T03:12:27;3.00;;;1.35;;
78925;SDS011;68321;51.276;7.208;2024-02-26T03:14:54;2.17;;;1.38;;
78925;SDS011;68321;51.276;7.208;2024-02-26T03:17:20;2.47;;;1.40;;
78925;SDS011;68321;51.276;7.208;2024-02-26T03:19:46;4.80;;;1.50;;
78925;SDS011;68321;51.276;7.208;2024-02-26T03:22:12;6.43;;;1.70;;
78925;SDS011;68321;51.276;7.208;2024-02-26T03:24:40;3.03;;;1.35;;
78925;SDS011;68321;51.276;7.208;2024-02-26T03:27:05;2.55;;;1.30;;
78925;SDS011;68321;51.276;7.208;2024-02-26T03:29:35;3.00;;;1.58;;
78925;SDS011;68321;51.276;7.208;2024-02-26T03:32:02;3.70;;;1.98;;
78925;SDS011;68321;51.276;7.208;2024-02-26T03:34:27;2.45;;;1.48;;
78925;SDS011;68321;51.276;7.208;2024-02-26T03:36:53;5.00;;;1.83;;
78925;SDS011;68321;51.276;7.208;2024-02-26T03:39:20;2.30;;;1.35;;
78925;SDS011;68321;51.276;7.208;2024-02-26T03:41:46;2.97;;;1.63;;
78925;SDS011;68321;51.276;7.208;2024-02-26T03:44:12;2.92;;;1.83;;
78925;SDS011;68321;51.276;7.208;2024-02-26T03:46:37;2.88;;;1.50;;
78925;SDS011;68321;51.276;7.208;2024-02-26T03:49:02;2.97;;;1.60;;
78925;SDS011;68321;51.276;7.208;2024-02-26T03:51:31;2.15;;;1.30;;
78925;SDS011;68321;51.276;7.208;2024-02-26T03:56:25;2.42;;;1.40;;
78925;SDS011;68321;51.276;7.208;2024-02-26T03:58:51;2.05;;;1.60;;
78925;SDS011;68321;51.276;7.208;2024-02-26T04:01:16;2.83;;;1.40;;
78925;SDS011;68321;51.276;7.208;2024-02-26T04:03:42;2.72;;;1.35;;
78925;SDS011;68321;51.276;7.208;2024-02-26T04:06:10;2.17;;;1.42;;
78925;SDS011;68321;51.276;7.208;2024-02-26T04:08:36;2.30;;;1.42;;
78925;SDS011;68321;51.276;7.208;2024-02-26T04:11:03;2.13;;;1.48;;
78925;SDS011;68321;51.276;7.208;2024-02-26T04:13:35;2.90;;;1.85;;
78925;SDS011;68321;51.276;7.208;2024-02-26T04:16:03;4.05;;;1.65;;
78925;SDS011;68321;51.276;7.208;2024-02-26T04:18:29;2.35;;;1.90;;
78925;SDS011;68321;51.276;7.208;2024-02-26T04:20:56;11.20;;;1.90;;
78925;SDS011;68321;51.276;7.208;2024-02-26T04:23:26;3.67;;;1.50;;
78925;SDS011;68321;51.276;7.208;2024-02-26T04:25:51;2.85;;;2.00;;
78925;SDS011;68321;51.276;7.208;2024-02-26T04:28:18;3.10;;;1.70;;
78925;SDS011;68321;51.276;7.208;2024-02-26T04:30:45;4.57;;;2.15;;
78925;SDS011;68321;51.276;7.208;2024-02-26T04:33:13;4.18;;;2.08;;
78925;SDS011;68321;51.276;7.208;2024-02-26T04:35:38;4.90;;;2.05;;
78925;SDS011;68321;51.276;7.208;2024-02-26T04:38:06;2.97;;;1.73;;
78925;SDS011;68321;51.276;7.208;2024-02-26T04:40:31;2.40;;;1.63;;
78925;SDS011;68321;51.276;7.208;2024-02-26T04:42:56;2.53;;;1.50;;
78925;SDS011;68321;51.276;7.208;2024-02-26T04:45:22;3.15;;;1.77;;
78925;SDS011;68321;51.276;7.208;2024-02-26T04:47:52;3.28;;;1.67;;
78925;SDS011;68321;51.276;7.208;2024-02-26T04:50:17;2.97;;;1.80;;
78925;SDS011;68321;51.276;7.208;2024-02-26T04:52:43;4.60;;;2.00;;
78925;SDS011;68321;51.276;7.208;2024-02-26T04:55:09;4.00;;;2.25;;
78925;SDS011;68321;51.276;7.208;2024-02-26T04:57:35;3.78;;;1.75;;
78925;SDS011;68321;51.276;7.208;2024-02-26T05:00:00;3.95;;;2.05;;
78925;SDS011;68321;51.276;7.208;2024-02-26T05:02:26;2.83;;;1.80;;
78925;SDS011;68321;51.276;7.208;2024-02-26T05:04:52;4.00;;;1.98;;
78925;SDS011;68321;51.276;7.208;2024-02-26T05:07:17;3.53;;;1.80;;
78925;SDS011;68321;51.276;7.208;2024-02-26T05:09:43;2.92;;;2.50;;
78925;SDS011;68321;51.276;7.208;2024-02-26T05:12:10;2.65;;;1.60;;
78925;SDS011;68321;51.276;7.208;2024-02-26T05:14:36;3.03;;;1.92;;
78925;SDS011;68321;51.276;7.208;2024-02-26T05:17:01;3.20;;;1.90;;
78925;SDS011;68321;51.276;7.208;2024-02-26T05:19:27;2.90;;;1.88;;
78925;SDS011;68321;51.276;7.208;2024-02-26T05:21:52;4.15;;;2.20;;
78925;SDS011;68321;51.276;7.208;2024-02-26T05:24:18;3.20;;;1.90;;
78925;SDS011;68321;51.276;7.208;2024-02-26T05:26:44;5.18;;;2.05;;
78925;SDS011;68321;51.276;7.208;2024-02-26T05:29:11;5.13;;;1.42;;
78925;SDS011;68321;51.276;7.208;2024-02-26T05:31:37;3.05;;;1.95;;
78925;SDS011;68321;51.276;7.208;2024-02-26T05:34:02;4.28;;;2.35;;
78925;SDS011;68321;51.276;7.208;2024-02-26T05:36:28;3.55;;;1.98;;
78925;SDS011;68321;51.276;7.208;2024-02-26T05:38:58;2.58;;;1.90;;
78925;SDS011;68321;51.276;7.208;2024-02-26T05:41:27;4.55;;;2.05;;
78925;SDS011;68321;51.276;7.208;2024-02-26T05:43:53;3.45;;;2.20;;
78925;SDS011;68321;51.276;7.208;2024-02-26T05:46:22;2.40;;;1.95;;
78925;SDS011;68321;51.276;7.208;2024-02-26T05:51:19;4.23;;;1.97;;
78925;SDS011;68321;51.276;7.208;2024-02-26T05:53:44;3.42;;;1.73;;
78925;SDS011;68321;51.276;7.208;2024-02-26T05:56:12;4.05;;;2.78;;
78925;SDS011;68321;51.276;7.208;2024-02-26T05:58:37;5.00;;;2.75;;
78925;SDS011;68321;51.276;7.208;2024-02-26T06:01:03;4.32;;;2.22;;
78925;SDS011;68321;51.276;7.208;2024-02-26T06:03:29;4.07;;;2.70;;
78925;SDS011;68321;51.276;7.208;2024-02-26T06:05:54;3.58;;;2.97;;
78925;SDS011;68321;51.276;7.208;2024-02-26T06:08:20;3.92;;;2.63;;
78925;SDS011;68321;51.276;7.208;2024-02-26T06:10:45;4.03;;;2.13;;
78925;SDS011;68321;51.276;7.208;2024-02-26T06:13:13;4.20;;;2.95;;
78925;SDS011;68321;51.276;7.208;2024-02-26T06:15:38;3.35;;;2.50;;
78925;SDS011;68321;51.276;7.208;2024-02-26T06:18:03;3.83;;;2.70;;
78925;SDS011;68321;51.276;7.208;2024-02-26T06:20:29;3.83;;;2.55;;
78925;SDS011;68321;51.276;7.208;2024-02-26T06:22:54;3.78;;;2.78;;
78925;SDS011;68321;51.276;7.208;2024-02-26T06:25:20;4.43;;;2.33;;
78925;SDS011;68321;51.276;7.208;2024-02-26T06:27:50;5.45;;;2.80;;
78925;SDS011;68321;51.276;7.208;2024-02-26T06:30:15;3.92;;;2.72;;
78925;SDS011;68321;51.276;7.208;2024-02-26T06:32:41;7.03;;;2.78;;
78925;SDS011;68321;51.276;7.208;2024-02-26T06:35:06;4.10;;;2.70;;
78925;SDS011;68321;51.276;7.208;2024-02-26T06:37:35;4.93;;;2.53;;
78925;SDS011;68321;51.276;7.208;2024-02-26T06:40:01;3.92;;;2.30;;
78925;SDS011;68321;51.276;7.208;2024-02-26T06:42:36;3.75;;;2.00;;
78925;SDS011;68321;51.276;7.208;2024-02-26T06:45:01;5.13;;;3.08;;
78925;SDS011;68321;51.276;7.208;2024-02-26T06:47:29;5.70;;;3.35;;
78925;SDS011;68321;51.276;7.208;2024-02-26T06:50:00;4.80;;;2.67;;
78925;SDS011;68321;51.276;7.208;2024-02-26T06:52:26;4.05;;;3.47;;
78925;SDS011;68321;51.276;7.208;2024-02-26T06:54:52;4.43;;;2.72;;
78925;SDS011;68321;51.276;7.208;2024-02-26T06:57:21;2.65;;;1.92;;
78925;SDS011;68321;51.276;7.208;2024-02-26T06:59:47;4.55;;;2.38;;
78925;SDS011;68321;51.276;7.208;2024-02-26T07:02:13;3.40;;;2.50;;
78925;SDS011;68321;51.276;7.208;2024-02-26T07:04:40;3.53;;;2.67;;
78925;SDS011;68321;51.276;7.208;2024-02-26T07:07:06;4.45;;;2.47;;
78925;SDS011;68321;51.276;7.208;2024-02-26T07:09:32;5.32;;;3.00;;
78925;SDS011;68321;51.276;7.208;2024-02-26T07:11:58;3.80;;;2.67;;
78925;SDS011;68321;51.276;7.208;2024-02-26T07:14:27;4.82;;;2.78;;
78925;SDS011;68321;51.276;7.208;2024-02-26T07:16:54;5.03;;;3.20;;
78925;SDS011;68321;51.276;7.208;2024-02-26T07:19:19;8.98;;;2.90;;
78925;SDS011;68321;51.276;7.208;2024-02-26T07:21:46;9.13;;;3.30;;
78925;SDS011;68321;51.276;7.208;2024-02-26T07:24:12;5.93;;;3.13;;
78925;SDS011;68321;51.276;7.208;2024-02-26T07:26:38;4.53;;;3.20;;
78925;SDS011;68321;51.276;7.208;2024-02-26T07:29:03;6.35;;;3.40;;
78925;SDS011;68321;51.276;7.208;2024-02-26T07:31:30;7.35;;;3.95;;
78925;SDS011;68321;51.276;7.208;2024-02-26T07:33:57;4.22;;;3.00;;
78925;SDS011;68321;51.276;7.208;2024-02-26T07:36:25;5.47;;;3.53;;
78925;SDS011;68321;51.276;7.208;2024-02-26T07:38:53;5.10;;;3.45;;
78925;SDS011;68321;51.276;7.208;2024-02-26T07:41:27;7.43;;;3.67;;
78925;SDS011;68321;51.276;7.208;2024-02-26T07:43:52;7.93;;;3.53;;
78925;SDS011;68321;51.276;7.208;2024-02-26T07:46:18;5.95;;;3.05;;
78925;SDS011;68321;51.276;7.208;2024-02-26T07:48:44;5.90;;;3.75;;
78925;SDS011;68321;51.276;7.208;2024-02-26T07:51:12;7.00;;;2.55;;
78925;SDS011;68321;51.276;7.208;2024-02-26T07:53:38;4.30;;;3.28;;
78925;SDS011;68321;51.276;7.208;2024-02-26T07:56:03;3.95;;;3.22;;
78925;SDS011;68321;51.276;7.208;2024-02-26T07:58:29;4.20;;;3.10;;
78925;SDS011;68321;51.276;7.208;2024-02-26T08:00:56;4.20;;;3.00;;
78925;SDS011;68321;51.276;7.208;2024-02-26T08:03:22;7.13;;;3.10;;
78925;SDS011;68321;51.276;7.208;2024-02-26T08:05:47;5.88;;;3.05;;
78925;SDS011;68321;51.276;7.208;2024-02-26T08:08:13;3.97;;;2.97;;
78925;SDS011;68321;51.276;7.208;2024-02-26T08:10:38;5.30;;;3.00;;
78925;SDS011;68321;51.276;7.208;2024-02-26T08:13:05;6.32;;;3.42;;
78925;SDS011;68321;51.276;7.208;2024-02-26T08:15:30;6.03;;;2.88;;
78925;SDS011;68321;51.276;7.208;2024-02-26T08:18:01;7.63;;;3.42;;
78925;SDS011;68321;51.276;7.208;2024-02-26T08:20:31;5.82;;;3.00;;
78925;SDS011;68321;51.276;7.208;2024-02-26T08:22:57;8.65;;;3.22;;
78925;SDS011;68321;51.276;7.208;2024-02-26T08:25:22;4.88;;;3.47;;
78925;SDS011;68321;51.276;7.208;2024-02-26T08:30:19;6.27;;;3.60;;
78925;SDS011;68321;51.276;7.208;2024-02-26T08:32:45;6.60;;;2.97;;
78925;SDS011;68321;51.276;7.208;2024-02-26T08:35:11;6.35;;;3.25;;
78925;SDS011;68321;51.276;7.208;2024-02-26T08:37:37;10.02;;;3.80;;
78925;SDS011;68321;51.276;7.208;2024-02-26T08:40:03;7.47;;;3.70;;
78925;SDS011;68321;51.276;7.208;2024-02-26T08:42:29;5.75;;;3.85;;
78925;SDS011;68321;51.276;7.208;2024-02-26T08:44:56;6.15;;;3.67;;
78925;SDS011;68321;51.276;7.208;2024-02-26T08:47:21;6.47;;;3.70;;
78925;SDS011;68321;51.276;7.208;2024-02-26T08:49:47;5.15;;;4.30;;
78925;SDS011;68321;51.276;7.208;2024-02-26T08:52:14;4.43;;;3.15;;
78925;SDS011;68321;51.276;7.208;2024-02-26T08:54:40;5.95;;;2.88;;
78925;SDS011;68321;51.276;7.208;2024-02-26T08:57:06;4.35;;;3.00;;
78925;SDS011;68321;51.276;7.208;2024-02-26T08:59:31;5.22;;;2.88;;
78925;SDS011;68321;51.276;7.208;2024-02-26T09:01:57;6.40;;;3.55;;
78925;SDS011;68321;51.276;7.208;2024-02-26T09:04:22;4.55;;;2.65;;
78925;SDS011;68321;51.276;7.208;2024-02-26T09:06:48;5.50;;;2.80;;
78925;SDS011;68321;51.276;7.208;2024-02-26T09:09:14;11.48;;;5.78;;
78925;SDS011;68321;51.276;7.208;2024-02-26T09:11:39;5.63;;;3.03;;
78925;SDS011;68321;51.276;7.208;2024-02-26T09:14:06;5.60;;;3.15;;
78925;SDS011;68321;51.276;7.208;2024-02-26T09:16:31;6.78;;;4.25;;
78925;SDS011;68321;51.276;7.208;2024-02-26T09:18:57;7.05;;;3.40;;
78925;SDS011;68321;51.276;7.208;2024-02-26T09:21:22;6.85;;;4.15;;
78925;SDS011;68321;51.276;7.208;2024-02-26T09:23:49;8.75;;;4.90;;
78925;SDS011;68321;51.276;7.208;2024-02-26T09:26:15;7.57;;;3.72;;
78925;SDS011;68321;51.276;7.208;2024-02-26T09:28:41;6.15;;;3.55;;
78925;SDS011;68321;51.276;7.208;2024-02-26T09:31:07;5.97;;;4.15;;
78925;SDS011;68321;51.276;7.208;2024-02-26T09:33:33;7.53;;;4.45;;
78925;SDS011;68321;51.276;7.208;2024-02-26T09:35:59;8.30;;;5.15;;
78925;SDS011;68321;51.276;7.208;2024-02-26T09:38:28;7.10;;;3.83;;
78925;SDS011;68321;51.276;7.208;2024-02-26T09:40:56;6.88;;;3.40;;
78925;SDS011;68321;51.276;7.208;2024-02-26T09:43:23;6.25;;;4.10;;
78925;SDS011;68321;51.276;7.208;2024-02-26T09:45:53;5.00;;;3.25;;
78925;SDS011;68321;51.276;7.208;2024-02-26T09:48:20;4.25;;;3.20;;
78925;SDS011;68321;51.276;7.208;2024-02-26T09:50:47;5.20;;;3.20;;
78925;SDS011;68321;51.276;7.208;2024-02-26T09:53:13;5.00;;;2.92;;
78925;SDS011;68321;51.276;7.208;2024-02-26T09:55:40;5.97;;;3.55;;
78925;SDS011;68321;51.276;7.208;2024-02-26T09:58:05;6.10;;;3.83;;
78925;SDS011;68321;51.276;7.208;2024-02-26T10:00:32;5.03;;;3.28;;
78925;SDS011;68321;51.276;7.208;2024-02-26T10:03:02;7.40;;;3.95;;
78925;SDS011;68321;51.276;7.208;2024-02-26T10:05:29;6.95;;;3.25;;
78925;SDS011;68321;51.276;7.208;2024-02-26T10:07:55;5.30;;;3.85;;
78925;SDS011;68321;51.276;7.208;2024-02-26T10:10:22;4.70;;;3.22;;
78925;SDS011;68321;51.276;7.208;2024-02-26T10:12:48;5.13;;;3.33;;
78925;SDS011;68321;51.276;7.208;2024-02-26T10:15:14;5.65;;;3.47;;
78925;SDS011;68321;51.276;7.208;2024-02-26T10:17:39;5.93;;;3.35;;
78925;SDS011;68321;51.276;7.208;2024-02-26T10:22:46;4.43;;;3.22;;
78925;SDS011;68321;51.276;7.208;2024-02-26T10:25:12;6.60;;;3.28;;
78925;SDS011;68321;51.276;7.208;2024-02-26T10:27:37;7.22;;;3.30;;
78925;SDS011;68321;51.276;7.208;2024-02-26T10:30:22;8.23;;;4.55;;
78925;SDS011;68321;51.276;7.208;2024-02-26T10:32:52;5.55;;;3.80;;
78925;SDS011;68321;51.276;7.208;2024-02-26T10:35:17;7.03;;;3.15;;
78925;SDS011;68321;51.276;7.208;2024-02-26T10:37:46;7.55;;;3.65;;
78925;SDS011;68321;51.276;7.208;2024-02-26T10:40:12;5.78;;;3.17;;
78925;SDS011;68321;51.276;7.208;2024-02-26T10:42:40;6.50;;;3.38;;
78925;SDS011;68321;51.276;7.208;2024-02-26T10:45:06;6.30;;;3.80;;
78925;SDS011;68321;51.276;7.208;2024-02-26T10:47:34;7.25;;;3.92;;
78925;SDS011;68321;51.276;7.208;2024-02-26T10:50:05;5.93;;;3.80;;
78925;SDS011;68321;51.276;7.208;2024-02-26T10:52:32;8.27;;;3.67;;
78925;SDS011;68321;51.276;7.208;2024-02-26T10:55:02;5.03;;;3.83;;
78925;SDS011;68321;51.276;7.208;2024-02-26T10:57:39;4.20;;;3.42;;
78925;SDS011;68321;51.276;7.208;2024-02-26T11:00:06;6.20;;;3.63;;
78925;SDS011;68321;51.276;7.208;2024-02-26T11:02:36;5.68;;;3.70;;
78925;SDS011;68321;51.276;7.208;2024-02-26T11:05:03;7.05;;;3.85;;
78925;SDS011;68321;51.276;7.208;2024-02-26T11:07:31;4.30;;;3.25;;
78925;SDS011;68321;51.276;7.208;2024-02-26T11:10:00;5.55;;;3.78;;
78925;SDS011;68321;51.276;7.208;2024-02-26T11:12:30;7.88;;;4.10;;
78925;SDS011;68321;51.276;7.208;2024-02-26T11:14:58;5.50;;;3.30;;
78925;SDS011;68321;51.276;7.208;2024-02-26T11:17:27;7.35;;;4.13;;
78925;SDS011;68321;51.276;7.208;2024-02-26T11:19:58;6.65;;;3.92;;
78925;SDS011;68321;51.276;7.208;2024-02-26T11:22:25;6.32;;;4.00;;
78925;SDS011;68321;51.276;7.208;2024-02-26T11:24:54;8.40;;;3.92;;
78925;SDS011;68321;51.276;7.208;2024-02-26T11:27:45;7.93;;;3.95;;
78925;SDS011;68321;51.276;7.208;2024-02-26T11:30:15;10.27;;;4.60;;
78925;SDS011;68321;51.276;7.208;2024-02-26T11:32:46;4.32;;;2.72;;
78925;SDS011;68321;51.276;7.208;2024-02-26T11:35:14;7.55;;;4.10;;
78925;SDS011;68321;51.276;7.208;2024-02-26T11:37:42;5.68;;;3.97;;
78925;SDS011;68321;51.276;7.208;2024-02-26T11:40:16;8.60;;;4.03;;
78925;SDS011;68321;51.276;7.208;2024-02-26T11:42:45;7.20;;;4.22;;
78925;SDS011;68321;51.276;7.208;2024-02-26T11:50:41;8.30;;;4.30;;
78925;SDS011;68321;51.276;7.208;2024-02-26T11:53:21;9.27;;;4.47;;
78925;SDS011;68321;51.276;7.208;2024-02-26T11:55:48;9.07;;;4.80;;
78925;SDS011;68321;51.276;7.208;2024-02-26T11:58:33;7.25;;;4.38;;
78925;SDS011;68321;51.276;7.208;2024-02-26T12:00:59;9.27;;;4.88;;
78925;SDS011;68321;51.276;7.208;2024-02-26T12:03:24;9.80;;;5.90;;
78925;SDS011;68321;51.276;7.208;2024-02-26T12:05:51;8.93;;;5.22;;
78925;SDS011;68321;51.276;7.208;2024-02-26T12:08:16;8.10;;;4.85;;
78925;SDS011;68321;51.276;7.208;2024-02-26T12:10:45;7.50;;;4.85;;
78925;SDS011;68321;51.276;7.208;2024-02-26T12:13:14;9.57;;;5.03;;
78925;SDS011;68321;51.276;7.208;2024-02-26T12:15:45;8.85;;;4.95;;
78925;SDS011;68321;51.276;7.208;2024-02-26T12:18:22;10.45;;;6.05;;
78925;SDS011;68321;51.276;7.208;2024-02-26T12:21:01;8.43;;;4.80;;
78925;SDS011;68321;51.276;7.208;2024-02-26T12:23:28;9.18;;;4.95;;
78925;SDS011;68321;51.276;7.208;2024-02-26T12:26:03;11.90;;;6.40;;
78925;SDS011;68321;51.276;7.208;2024-02-26T12:28:29;10.90;;;5.22;;
78925;SDS011;68321;51.276;7.208;2024-02-26T12:30:55;13.20;;;7.95;;
78925;SDS011;68321;51.276;7.208;2024-02-26T12:33:20;14.60;;;8.15;;
78925;SDS011;68321;51.276;7.208;2024-02-26T12:35:47;15.90;;;6.60;;
78925;SDS011;68321;51.276;7.208;2024-02-26T12:38:16;13.20;;;6.93;;
78925;SDS011;68321;51.276;7.208;2024-02-26T12:40:44;14.00;;;7.88;;
78925;SDS011;68321;51.276;7.208;2024-02-26T12:43:11;12.68;;;7.10;;
78925;SDS011;68321;51.276;7.208;2024-02-26T12:45:40;12.02;;;6.93;;
78925;SDS011;68321;51.276;7.208;2024-02-26T12:48:06;12.48;;;6.38;;
78925;SDS011;68321;51.276;7.208;2024-02-26T12:50:32;9.82;;;5.82;;
78925;SDS011;68321;51.276;7.208;2024-02-26T12:52:58;10.70;;;6.70;;
78925;SDS011;68321;51.276;7.208;2024-02-26T12:55:24;10.55;;;6.22;;
78925;SDS011;68321;51.276;7.208;2024-02-26T12:57:51;9.95;;;6.47;;
78925;SDS011;68321;51.276;7.208;2024-02-26T13:00:18;11.95;;;7.22;;
78925;SDS011;68321;51.276;7.208;2024-02-26T13:02:47;8.70;;;5.25;;
78925;SDS011;68321;51.276;7.208;2024-02-26T13:05:15;10.35;;;6.93;;
78925;SDS011;68321;51.276;7.208;2024-02-26T13:07:41;8.30;;;5.20;;
78925;SDS011;68321;51.276;7.208;2024-02-26T13:10:08;7.90;;;5.18;;
78925;SDS011;68321;51.276;7.208;2024-02-26T13:12:35;6.82;;;4.13;;
78925;SDS011;68321;51.276;7.208;2024-02-26T13:15:03;8.75;;;4.72;;
78925;SDS011;68321;51.276;7.208;2024-02-26T13:17:32;7.00;;;4.60;;
78925;SDS011;68321;51.276;7.208;2024-02-26T13:19:58;8.48;;;4.20;;
78925;SDS011;68321;51.276;7.208;2024-02-26T13:22:24;7.45;;;3.88;;
78925;SDS011;68321;51.276;7.208;2024-02-26T13:24:56;9.45;;;4.35;;
78925;SDS011;68321;51.276;7.208;2024-02-26T13:27:23;7.85;;;4.35;;
78925;SDS011;68321;51.276;7.208;2024-02-26T13:30:01;7.53;;;4.13;;
78925;SDS011;68321;51.276;7.208;2024-02-26T13:32:36;5.70;;;3.42;;
78925;SDS011;68321;51.276;7.208;2024-02-26T13:35:13;4.88;;;3.20;;
78925;SDS011;68321;51.276;7.208;2024-02-26T13:37:39;8.55;;;4.40;;
78925;SDS011;68321;51.276;7.208;2024-02-26T13:40:07;7.63;;;4.20;;
78925;SDS011;68321;51.276;7.208;2024-02-26T13:42:37;7.32;;;4.88;;
78925;SDS011;68321;51.276;7.208;2024-02-26T13:45:06;6.78;;;4.18;;
78925;SDS011;68321;51.276;7.208;2024-02-26T13:47:35;6.35;;;3.80;;
78925;SDS011;68321;51.276;7.208;2024-02-26T13:50:01;5.88;;;3.75;;
78925;SDS011;68321;51.276;7.208;2024-02-26T13:52:28;6.32;;;4.63;;
78925;SDS011;68321;51.276;7.208;2024-02-26T13:54:57;7.28;;;4.47;;
78925;SDS011;68321;51.276;7.208;2024-02-26T13:57:25;9.98;;;4.93;;
78925;SDS011;68321;51.276;7.208;2024-02-26T13:59:54;13.43;;;5.05;;
78925;SDS011;68321;51.276;7.208;2024-02-26T14:04:46;5.50;;;3.95;;
78925;SDS011;68321;51.276;7.208;2024-02-26T14:07:13;10.45;;;5.05;;
78925;SDS011;68321;51.276;7.208;2024-02-26T14:09:38;8.07;;;4.60;;
78925;SDS011;68321;51.276;7.208;2024-02-26T14:12:04;5.40;;;3.95;;
78925;SDS011;68321;51.276;7.208;2024-02-26T14:14:30;8.20;;;4.90;;
78925;SDS011;68321;51.276;7.208;2024-02-26T14:16:59;8.55;;;4.88;;
78925;SDS011;68321;51.276;7.208;2024-02-26T14:19:25;7.50;;;4.85;;
78925;SDS011;68321;51.276;7.208;2024-02-26T14:21:52;7.57;;;5.00;;
78925;SDS011;68321;51.276;7.208;2024-02-26T14:24:19;6.57;;;4.20;;
78925;SDS011;68321;51.276;7.208;2024-02-26T14:29:13;7.90;;;5.03;;
78925;SDS011;68321;51.276;7.208;2024-02-26T14:31:39;7.70;;;4.47;;
78925;SDS011;68321;51.276;7.208;2024-02-26T14:34:05;6.43;;;4.22;;
78925;SDS011;68321;51.276;7.208;2024-02-26T14:36:32;7.45;;;4.65;;
78925;SDS011;68321;51.276;7.208;2024-02-26T14:38:57;7.57;;;4.43;;
78925;SDS011;68321;51.276;7.208;2024-02-26T14:41:23;6.28;;;4.25;;
78925;SDS011;68321;51.276;7.208;2024-02-26T14:44:00;6.85;;;4.40;;
78925;SDS011;68321;51.276;7.208;2024-02-26T14:46:26;6.28;;;4.43;;
78925;SDS011;68321;51.276;7.208;2024-02-26T14:48:51;9.20;;;5.07;;
78925;SDS011;68321;51.276;7.208;2024-02-26T14:51:17;7.80;;;4.25;;
78925;SDS011;68321;51.276;7.208;2024-02-26T14:53:50;9.23;;;5.07;;
78925;SDS011;68321;51.276;7.208;2024-02-26T14:56:16;8.10;;;4.97;;
78925;SDS011;68321;51.276;7.208;2024-02-26T14:58:42;7.63;;;4.32;;
78925;SDS011;68321;51.276;7.208;2024-02-26T15:01:08;7.65;;;4.30;;
78925;SDS011;68321;51.276;7.208;2024-02-26T15:03:35;8.52;;;4.95;;
78925;SDS011;68321;51.276;7.208;2024-02-26T15:06:01;6.82;;;5.22;;
78925;SDS011;68321;51.276;7.208;2024-02-26T15:08:27;6.72;;;4.25;;